Time;durP1;ratioP1;P1;durP2;ratioP2;P2;SDS_P1;SDS_P2;PMS_P1;PMS_P2;Temp;Humidity;BMP_temperature;BMP_pressure;BME280_temperature;BME280_humidity;BME280_pressure;Samples;Min_cycle;Max_cycle;Signal;HPM_P1;HPM_P2
2022/03/25 00:02:23;;;;;;;;;;;;;;;4.46;54.44;101255.18;1961759;72;20238;-64
2022/03/25 00:04:52;;;;;;;;;;;;;;;4.47;54.37;101254.77;1947250;72;20105;-69
2022/03/25 00:07:20;;;;;;;;;;;;;;;4.48;54.30;101257.78;1992487;72;20114;-67
2022/03/25 00:09:48;;;;;;;;;;;;;;;4.47;54.35;101250.41;1987245;72;20129;-72
2022/03/25 00:12:16;;;;;;;;;;;;;;;4.44;54.38;101246.09;1981151;72;20214;-63
2022/03/25 00:14:44;;;;;;;;;;;;;;;4.43;54.45;101248.70;1975146;72;20197;-62
2022/03/25 00:17:12;;;;;;;;;;;;;;;4.43;54.46;101244.80;1967577;72;20208;-63
2022/03/25 00:19:39;;;;;;;;;;;;;;;4.43;54.48;101244.80;1967117;72;20147;-62
2022/03/25 00:22:08;;;;;;;;;;;;;;;4.46;54.40;101247.36;1975742;72;20140;-64
2022/03/25 00:24:35;;;;;;;;;;;;;;;4.46;54.50;101244.75;1971467;72;20235;-63
2022/03/25 00:27:04;;;;;;;;;;;;;;;4.44;54.59;101239.98;1972414;72;20156;-62
2022/03/25 00:29:32;;;;;;;;;;;;;;;4.42;54.60;101235.22;1970935;72;20662;-63
2022/03/25 00:32:02;;;;;;;;;;;;;;;4.43;54.81;101233.05;1958502;72;20232;-62
2022/03/25 00:34:30;;;;;;;;;;;;;;;4.41;54.90;101229.59;1973148;72;20375;-62
2022/03/25 00:36:58;;;;;;;;;;;;;;;4.41;55.00;101228.29;1973144;72;20113;-65
2022/03/25 00:39:26;;;;;;;;;;;;;;;4.40;55.03;101229.16;1963162;72;20100;-69
2022/03/25 00:41:53;;;;;;;;;;;;;;;4.41;55.21;101221.77;1972552;72;20145;-60
2022/03/25 00:44:21;;;;;;;;;;;;;;;4.40;55.25;101227.84;1958889;73;20131;-61
2022/03/25 00:46:49;;;;;;;;;;;;;;;4.40;55.07;101220.03;1971836;72;20139;-60
2022/03/25 00:49:17;;;;;;;;;;;;;;;4.41;55.08;101221.77;2001044;72;20118;-60
2022/03/25 00:51:46;;;;;;;;;;;;;;;4.41;55.03;101219.17;1999595;72;20370;-61
2022/03/25 00:54:14;;;;;;;;;;;;;;;4.40;54.97;101223.48;1958985;73;20128;-63
2022/03/25 00:56:42;;;;;;;;;;;;;;;4.42;54.91;101224.80;1958906;73;20120;-62
2022/03/25 00:59:10;;;;;;;;;;;;;;;4.42;54.88;101221.73;1954262;72;20383;-61
2022/03/25 01:01:38;;;;;;;;;;;;;;;4.43;54.81;101219.57;1914748;75;20142;-63
2022/03/25 01:04:07;;;;;;;;;;;;;;;4.46;54.76;101223.89;1914795;75;20145;-63
2022/03/25 01:06:36;;;;;;;;;;;;;;;4.45;54.69;101216.52;1914494;75;20137;-62
2022/03/25 01:09:04;;;;;;;;;;;;;;;4.47;54.66;101226.09;1941094;72;20192;-62
2022/03/25 01:11:33;;;;;;;;;;;;;;;4.47;54.66;101224.33;1938764;74;20117;-65
2022/03/25 01:14:01;;;;;;;;;;;;;;;4.47;54.66;101224.33;1950159;73;20372;-62
2022/03/25 01:16:29;;;;;;;;;;;;;;;4.47;54.70;101224.33;1965875;73;20335;-62
2022/03/25 01:18:59;;;;;;;;;;;;;;;4.45;54.76;101227.39;1965926;72;20114;-66
2022/03/25 01:21:27;;;;;;;;;;;;;;;4.45;54.77;101230.00;1965758;73;20387;-65
2022/03/25 01:23:56;;;;;;;;;;;;;;;4.44;54.81;101229.55;1965848;73;20098;-65
2022/03/25 01:26:24;;;;;;;;;;;;;;;4.43;54.91;101227.84;1965907;73;20375;-65
2022/03/25 01:28:52;;;;;;;;;;;;;;;4.42;54.88;101232.61;1965784;73;20125;-65
2022/03/25 01:31:20;;;;;;;;;;;;;;;4.42;54.88;101230.01;1965720;73;20177;-64
2022/03/25 01:33:49;;;;;;;;;;;;;;;4.42;54.82;101223.48;1965675;73;20112;-66
2022/03/25 01:36:18;;;;;;;;;;;;;;;4.42;54.83;101228.70;1937394;73;20161;-63
2022/03/25 01:38:46;;;;;;;;;;;;;;;4.40;54.82;101229.16;1926856;74;20158;-64
2022/03/25 01:41:15;;;;;;;;;;;;;;;4.39;54.85;101232.63;1935443;74;20156;-67
2022/03/25 01:43:48;;;;;;;;;;;;;;;4.38;54.98;101230.91;1933450;74;20143;-62
2022/03/25 01:46:17;;;;;;;;;;;;;;;4.35;55.11;101232.22;1917139;73;20168;-63
2022/03/25 01:48:45;;;;;;;;;;;;;;;4.33;55.09;101228.75;1922890;73;20362;-63
2022/03/25 01:51:14;;;;;;;;;;;;;;;4.31;55.13;101223.98;1943573;73;20523;-65
2022/03/25 01:53:42;;;;;;;;;;;;;;;4.31;55.11;101226.59;1943579;74;20117;-65
2022/03/25 01:56:10;;;;;;;;;;;;;;;4.31;55.07;101223.98;1943632;74;20109;-65
2022/03/25 01:58:39;;;;;;;;;;;;;;;4.30;55.14;101233.98;1943526;74;20117;-65
2022/03/25 02:01:07;;;;;;;;;;;;;;;4.26;55.25;101238.38;1933187;74;20184;-68
2022/03/25 02:03:35;;;;;;;;;;;;;;;4.25;55.33;101233.56;1930879;73;20145;-62
2022/03/25 02:06:04;;;;;;;;;;;;;;;4.24;55.35;101231.86;1952701;73;20101;-62
2022/03/25 02:08:31;;;;;;;;;;;;;;;4.24;55.29;101233.16;1949634;73;20114;-63
2022/03/25 02:10:59;;;;;;;;;;;;;;;4.26;55.22;101238.38;1966155;72;20110;-63
2022/03/25 02:13:28;;;;;;;;;;;;;;;4.26;55.25;101242.28;2004566;71;20152;-62
2022/03/25 02:15:57;;;;;;;;;;;;;;;4.28;55.32;101237.03;2004286;71;20112;-64
2022/03/25 02:18:25;;;;;;;;;;;;;;;4.27;55.39;101241.83;2004641;72;20114;-63
2022/03/25 02:20:53;;;;;;;;;;;;;;;4.23;55.53;101236.63;2002129;72;20153;-64
2022/03/25 02:23:22;;;;;;;;;;;;;;;4.23;55.69;101243.14;1956619;72;20388;-65
2022/03/25 02:25:51;;;;;;;;;;;;;;;4.20;55.90;101240.53;1962104;72;20110;-66
2022/03/25 02:28:19;;;;;;;;;;;;;;;4.19;55.94;101238.82;1962492;73;20376;-66
2022/03/25 02:30:48;;;;;;;;;;;;;;;4.22;55.98;101246.64;1962475;73;20368;-65
2022/03/25 02:33:16;;;;;;;;;;;;;;;4.22;55.88;101244.03;1962378;73;20114;-65
2022/03/25 02:35:45;;;;;;;;;;;;;;;4.24;55.89;101242.70;1962402;73;20157;-65
2022/03/25 02:38:14;;;;;;;;;;;;;;;4.23;55.91;101234.02;1975883;72;20098;-66
2022/03/25 02:40:42;;;;;;;;;;;;;;;4.24;55.96;101247.91;1984938;72;20396;-64
2022/03/25 02:43:16;;;;;;;;;;;;;;;4.23;55.99;101247.05;1984983;72;20126;-63
2022/03/25 02:45:42;;;;;;;;;;;;;;;4.23;56.03;101245.75;1983994;72;20173;-64
2022/03/25 02:48:11;;;;;;;;;;;;;;;4.22;55.89;101242.73;1984965;72;20114;-63
2022/03/25 02:50:39;;;;;;;;;;;;;;;4.23;55.89;101242.28;1984972;72;20392;-62
2022/03/25 02:53:07;;;;;;;;;;;;;;;4.21;55.99;101244.03;1984816;72;20227;-62
2022/03/25 02:55:34;;;;;;;;;;;;;;;4.21;56.00;101242.73;1984951;72;20168;-64
2022/03/25 02:58:03;;;;;;;;;;;;;;;4.21;55.98;101241.42;1984969;72;20113;-64
2022/03/25 03:00:31;;;;;;;;;;;;;;;4.21;56.00;101244.89;1984961;72;20376;-64
2022/03/25 03:03:02;;;;;;;;;;;;;;;4.21;56.06;101243.59;1984953;72;20102;-61
2022/03/25 03:05:30;;;;;;;;;;;;;;;4.20;56.13;101244.45;1984867;72;20192;-62
2022/03/25 03:07:59;;;;;;;;;;;;;;;4.19;56.11;101238.82;1985049;72;20371;-64
2022/03/25 03:10:27;;;;;;;;;;;;;;;4.16;56.22;101240.58;1982551;72;20118;-62
2022/03/25 03:12:55;;;;;;;;;;;;;;;4.18;56.23;101246.20;1978823;72;20369;-64
2022/03/25 03:15:24;;;;;;;;;;;;;;;4.20;56.14;101246.20;1978472;72;20140;-64
2022/03/25 03:17:52;;;;;;;;;;;;;;;4.22;56.12;101250.55;1978437;72;20106;-64
2022/03/25 03:20:21;;;;;;;;;;;;;;;4.22;56.15;101247.05;1978491;72;20111;-60
2022/03/25 03:22:48;;;;;;;;;;;;;;;4.22;56.24;101253.16;1978502;72;20114;-62
2022/03/25 03:25:16;;;;;;;;;;;;;;;4.22;56.28;101253.56;1978442;72;20183;-61
2022/03/25 03:27:44;;;;;;;;;;;;;;;4.21;56.35;101259.23;1978464;72;20141;-62
2022/03/25 03:30:12;;;;;;;;;;;;;;;4.22;56.39;101260.97;1978492;72;20158;-61
2022/03/25 03:32:40;;;;;;;;;;;;;;;4.21;56.50;101260.98;1978383;72;20114;-61
2022/03/25 03:35:08;;;;;;;;;;;;;;;4.21;56.50;101264.89;1978477;72;20110;-60
2022/03/25 03:37:43;;;;;;;;;;;;;;;4.22;56.51;101267.91;1971766;72;20199;-64
2022/03/25 03:40:11;;;;;;;;;;;;;;;4.19;56.57;101264.03;1959105;73;20397;-64
2022/03/25 03:42:39;;;;;;;;;;;;;;;4.19;56.62;101267.49;1959189;73;20174;-64
2022/03/25 03:45:08;;;;;;;;;;;;;;;4.20;56.67;101264.44;1958957;73;20178;-63
2022/03/25 03:47:36;;;;;;;;;;;;;;;4.20;56.66;101262.69;1959047;73;20398;-61
2022/03/25 03:50:05;;;;;;;;;;;;;;;4.19;56.74;101263.59;1958962;73;20174;-62
2022/03/25 03:52:33;;;;;;;;;;;;;;;4.18;56.86;101264.44;1959209;73;20420;-62
2022/03/25 03:55:01;;;;;;;;;;;;;;;4.17;56.97;101273.16;1958991;73;20140;-64
2022/03/25 03:57:31;;;;;;;;;;;;;;;4.17;56.92;101274.45;1958896;73;20155;-62
2022/03/25 04:00:17;;;;;;;;;;;;;;;4.19;56.85;101276.62;1844274;78;20156;-62
2022/03/25 04:02:45;;;;;;;;;;;;;;;4.23;56.75;101275.73;1844297;78;20111;-64
2022/03/25 04:05:13;;;;;;;;;;;;;;;4.24;56.87;101277.47;1844329;78;20123;-61
2022/03/25 04:07:45;;;;;;;;;;;;;;;4.22;56.93;101275.31;1844327;78;20119;-60
2022/03/25 04:10:17;;;;;;;;;;;;;;;4.21;57.02;101277.92;1844352;78;21200;-61
2022/03/25 04:12:45;;;;;;;;;;;;;;;4.20;57.05;101283.98;1844294;78;20415;-63
2022/03/25 04:15:13;;;;;;;;;;;;;;;4.20;57.12;101286.59;1844313;78;20123;-63
2022/03/25 04:17:41;;;;;;;;;;;;;;;4.21;57.08;101277.48;1844315;78;20119;-64
2022/03/25 04:20:10;;;;;;;;;;;;;;;4.22;57.18;101286.16;1844321;78;20123;-63
2022/03/25 04:22:38;;;;;;;;;;;;;;;4.22;57.30;101284.44;1844251;78;20115;-64
2022/03/25 04:25:07;;;;;;;;;;;;;;;4.22;57.36;101281.83;1844339;78;20123;-63
2022/03/25 04:27:36;;;;;;;;;;;;;;;4.23;57.48;101278.78;1844388;78;20380;-63
2022/03/25 04:30:04;;;;;;;;;;;;;;;4.22;57.46;101285.73;1842824;77;20123;-63
2022/03/25 04:32:32;;;;;;;;;;;;;;;4.22;57.47;101285.73;1844312;78;20153;-62
2022/03/25 04:35:00;;;;;;;;;;;;;;;4.25;57.37;101287.01;1844243;78;20147;-63
2022/03/25 04:37:28;;;;;;;;;;;;;;;4.28;57.46;101293.08;1844250;78;20149;-64
2022/03/25 04:39:56;;;;;;;;;;;;;;;4.24;57.55;101290.50;1844301;78;20166;-64
2022/03/25 04:42:25;;;;;;;;;;;;;;;4.24;57.74;101290.50;1844318;78;20120;-64
2022/03/25 04:44:53;;;;;;;;;;;;;;;4.25;57.89;101294.83;1844549;78;20381;-61
2022/03/25 04:47:20;;;;;;;;;;;;;;;4.25;58.01;101291.36;1844256;78;20150;-62
2022/03/25 04:49:48;;;;;;;;;;;;;;;4.27;58.07;101293.97;1844248;78;20123;-61
2022/03/25 04:52:16;;;;;;;;;;;;;;;4.29;58.10;101298.73;1844272;78;20119;-61
2022/03/25 04:54:44;;;;;;;;;;;;;;;4.31;58.17;101299.59;1844325;78;20154;-63
2022/03/25 04:57:11;;;;;;;;;;;;;;;4.31;58.20;101294.37;1844350;78;20204;-65
2022/03/25 04:59:39;;;;;;;;;;;;;;;4.33;58.56;101301.75;1866259;76;20128;-65
2022/03/25 05:02:09;;;;;;;;;;;;;;;4.32;59.02;101302.64;1882398;76;20147;-64
2022/03/25 05:04:36;;;;;;;;;;;;;;;4.29;59.69;101298.29;1882616;76;20143;-64
2022/03/25 05:07:04;;;;;;;;;;;;;;;4.27;59.67;101300.04;1882423;76;20147;-64
2022/03/25 05:09:33;;;;;;;;;;;;;;;4.25;59.59;101307.86;1882409;76;20227;-64
2022/03/25 05:12:21;;;;;;;;;;;;;;;4.24;59.95;101302.23;1913910;75;20159;-65
2022/03/25 05:14:48;;;;;;;;;;;;;;;4.20;60.25;101303.09;1913728;75;20391;-67
2022/03/25 05:17:16;;;;;;;;;;;;;;;4.20;60.27;101305.70;1913847;75;20113;-67
2022/03/25 05:19:44;;;;;;;;;;;;;;;4.21;60.43;101308.75;1913951;75;20162;-62
2022/03/25 05:22:12;;;;;;;;;;;;;;;4.21;60.37;101313.97;1913802;75;20115;-62
2022/03/25 05:24:40;;;;;;;;;;;;;;;4.23;60.42;101307.00;1913864;75;20103;-62
2022/03/25 05:27:07;;;;;;;;;;;;;;;4.24;60.89;101313.97;1913734;75;20110;-63
2022/03/25 05:29:35;;;;;;;;;;;;;;;4.24;60.84;101308.75;1913810;75;20165;-62
2022/03/25 05:32:03;;;;;;;;;;;;;;;4.25;60.74;101313.08;1913853;75;20118;-63
2022/03/25 05:34:31;;;;;;;;;;;;;;;4.29;60.78;101316.98;1913846;75;20119;-62
2022/03/25 05:36:58;;;;;;;;;;;;;;;4.28;61.54;101311.33;1913842;75;20145;-63
2022/03/25 05:39:26;;;;;;;;;;;;;;;4.21;61.66;101320.48;1913800;75;20149;-63
2022/03/25 05:41:54;;;;;;;;;;;;;;;4.21;61.87;101319.18;1913763;75;20153;-63
2022/03/25 05:44:21;;;;;;;;;;;;;;;4.22;62.11;101318.32;1913826;75;20115;-62
2022/03/25 05:46:49;;;;;;;;;;;;;;;4.24;62.36;101321.79;1913797;75;20111;-61
2022/03/25 05:49:17;;;;;;;;;;;;;;;4.27;62.42;101322.64;1914001;75;20119;-60
2022/03/25 05:51:45;;;;;;;;;;;;;;;4.23;62.44;101325.70;1913978;75;20149;-61
2022/03/25 05:54:13;;;;;;;;;;;;;;;4.21;63.33;101328.30;1913873;75;20122;-60
2022/03/25 05:56:40;;;;;;;;;;;;;;;4.23;62.88;101323.95;1913955;75;20114;-61
2022/03/25 05:59:08;;;;;;;;;;;;;;;4.26;63.00;101329.61;1913951;75;20146;-62
2022/03/25 06:01:36;;;;;;;;;;;;;;;4.24;63.55;101332.22;1913950;75;20149;-62
2022/03/25 06:04:04;;;;;;;;;;;;;;;4.27;63.80;101335.69;1913957;75;20119;-62
2022/03/25 06:06:32;;;;;;;;;;;;;;;4.29;63.93;101340.00;1913902;75;20157;-61
2022/03/25 06:08:59;;;;;;;;;;;;;;;4.29;64.19;101337.39;1913857;75;20119;-61
2022/03/25 06:11:27;;;;;;;;;;;;;;;4.29;63.73;101344.36;1914209;75;20104;-63
2022/03/25 06:13:55;;;;;;;;;;;;;;;4.35;63.51;101344.33;1914570;75;20169;-64
2022/03/25 06:16:23;;;;;;;;;;;;;;;4.36;64.07;101340.86;1914569;75;20384;-63
2022/03/25 06:18:52;;;;;;;;;;;;;;;4.25;64.15;101344.36;1914584;75;20118;-64
2022/03/25 06:21:20;;;;;;;;;;;;;;;4.23;64.23;101348.72;1914635;75;20141;-65
2022/03/25 06:23:48;;;;;;;;;;;;;;;4.22;64.76;101354.82;1914527;75;20103;-64
2022/03/25 06:26:16;;;;;;;;;;;;;;;4.21;64.77;101346.55;1914570;75;20171;-64
2022/03/25 06:28:43;;;;;;;;;;;;;;;4.22;65.06;101352.21;1914582;75;20118;-64
2022/03/25 06:31:16;;;;;;;;;;;;;;;4.25;64.70;101356.09;1821101;73;20498;-63
2022/03/25 06:33:44;;;;;;;;;;;;;;;4.30;64.63;101357.39;1818428;79;20125;-65
2022/03/25 06:36:15;;;;;;;;;;;;;;;4.33;64.59;101363.02;1818370;79;20121;-65
2022/03/25 06:38:44;;;;;;;;;;;;;;;4.36;64.60;101359.11;1839389;78;20111;-66
2022/03/25 06:41:11;;;;;;;;;;;;;;;4.40;64.62;101364.74;1844271;78;20131;-67
2022/03/25 06:43:39;;;;;;;;;;;;;;;4.40;65.04;101360.83;1844183;78;20111;-66
2022/03/25 06:46:07;;;;;;;;;;;;;;;4.36;64.90;101365.63;1844326;78;20170;-65
2022/03/25 06:48:35;;;;;;;;;;;;;;;4.36;64.99;101366.94;1844189;78;20123;-67
2022/03/25 06:51:04;;;;;;;;;;;;;;;4.37;64.77;101366.94;1844290;78;20119;-64
2022/03/25 06:53:33;;;;;;;;;;;;;;;4.47;64.57;101370.37;1844475;78;20123;-61
2022/03/25 06:56:01;;;;;;;;;;;;;;;4.56;64.27;101369.47;1844283;78;20135;-66
2022/03/25 06:58:30;;;;;;;;;;;;;;;4.65;64.19;101369.44;1844389;78;20119;-65
2022/03/25 07:00:59;;;;;;;;;;;;;;;4.72;64.08;101371.14;1844150;78;20424;-65
2022/03/25 07:03:27;;;;;;;;;;;;;;;4.77;63.98;101368.05;1844382;78;20221;-63
2022/03/25 07:05:59;;;;;;;;;;;;;;;4.85;63.77;101368.03;1844272;78;20112;-62
2022/03/25 07:08:26;;;;;;;;;;;;;;;4.86;63.89;101366.28;1843706;78;20146;-62
2022/03/25 07:10:54;;;;;;;;;;;;;;;4.89;64.16;101368.44;1844301;78;20131;-63
2022/03/25 07:13:22;;;;;;;;;;;;;;;4.95;64.00;101368.40;1844212;78;20119;-65
2022/03/25 07:15:50;;;;;;;;;;;;;;;5.02;63.78;101368.80;1844189;78;20153;-64
2022/03/25 07:18:17;;;;;;;;;;;;;;;5.11;63.59;101370.91;1844457;78;20495;-66
2022/03/25 07:20:45;;;;;;;;;;;;;;;5.19;63.45;101366.52;1844271;78;20115;-68
2022/03/25 07:23:13;;;;;;;;;;;;;;;5.27;63.28;101369.92;1844410;78;20123;-66
2022/03/25 07:25:41;;;;;;;;;;;;;;;5.33;63.35;101367.30;1844267;78;20116;-67
2022/03/25 07:28:09;;;;;;;;;;;;;;;5.40;63.12;101367.68;1844131;78;20111;-66
2022/03/25 07:30:37;;;;;;;;;;;;;;;5.48;63.23;101368.03;1844194;77;20171;-67
2022/03/25 07:33:05;;;;;;;;;;;;;;;5.51;63.09;101373.23;1844257;78;20127;-65
2022/03/25 07:35:33;;;;;;;;;;;;;;;5.54;62.99;101370.16;1844272;78;20124;-65
2022/03/25 07:38:00;;;;;;;;;;;;;;;5.63;62.86;101365.77;1836876;78;20124;-67
2022/03/25 07:40:28;;;;;;;;;;;;;;;5.72;62.69;101374.38;1829928;78;20138;-66
2022/03/25 07:42:56;;;;;;;;;;;;;;;5.79;62.73;101370.83;1829966;78;20199;-65
2022/03/25 07:45:24;;;;;;;;;;;;;;;5.80;62.67;101383.45;1829938;78;20151;-67
2022/03/25 07:47:52;;;;;;;;;;;;;;;5.80;63.01;101376.47;1829950;78;20160;-67
2022/03/25 07:50:21;;;;;;;;;;;;;;;5.78;62.96;101379.53;1829942;78;20105;-66
2022/03/25 07:52:49;;;;;;;;;;;;;;;5.76;62.88;101385.22;1829928;78;20120;-66
2022/03/25 07:55:19;;;;;;;;;;;;;;;5.77;62.77;101391.30;1829958;78;20171;-68
2022/03/25 07:57:48;;;;;;;;;;;;;;;5.78;62.66;101382.60;1829940;78;20172;-68
2022/03/25 08:00:16;;;;;;;;;;;;;;;5.83;62.70;101381.23;1829992;78;20211;-68
2022/03/25 08:02:49;;;;;;;;;;;;;;;5.87;62.59;101379.05;1830021;78;20167;-67
2022/03/25 08:05:17;;;;;;;;;;;;;;;5.94;62.43;101378.11;1829955;78;20164;-68
2022/03/25 08:07:48;;;;;;;;;;;;;;;5.97;62.38;101378.09;1829828;78;20156;-68
2022/03/25 08:10:23;;;;;;;;;;;;;;;5.98;62.37;101382.00;1829896;78;20147;-63
2022/03/25 08:12:51;;;;;;;;;;;;;;;5.99;62.51;101381.55;1829919;78;20120;-61
2022/03/25 08:15:20;;;;;;;;;;;;;;;6.03;62.54;101379.36;1829945;78;20211;-61
2022/03/25 08:17:52;;;;;;;;;;;;;;;6.11;62.45;101383.20;1829930;78;20190;-60
2022/03/25 08:20:33;;;;;;;;;;;;;;;6.21;62.37;101370.89;1829923;78;20152;-61
2022/03/25 08:23:00;;;;;;;;;;;;;;;6.32;62.37;101376.86;1829789;77;20155;-60
2022/03/25 08:28:15;;;;;;;;;;;;;;;6.50;62.11;101370.55;1829870;78;20125;-60
2022/03/25 08:30:43;;;;;;;;;;;;;;;6.52;62.23;101370.09;1827950;78;20117;-60
2022/03/25 08:33:12;;;;;;;;;;;;;;;6.59;62.00;101366.97;1821203;79;20132;-59
2022/03/25 08:35:42;;;;;;;;;;;;;;;6.62;61.96;101372.14;1864452;75;20154;-62
2022/03/25 08:38:11;;;;;;;;;;;;;;;6.60;61.94;101369.54;1886587;75;20121;-59
2022/03/25 08:40:40;;;;;;;;;;;;;;;6.56;62.16;101366.09;1884963;76;20113;-60
2022/03/25 08:43:08;;;;;;;;;;;;;;;6.61;62.16;101372.59;1884721;76;20413;-61
2022/03/25 08:45:36;;;;;;;;;;;;;;;6.62;62.06;101366.91;1884835;76;20155;-58
2022/03/25 08:48:04;;;;;;;;;;;;;;;6.68;61.95;101372.95;1884837;76;20104;-57
2022/03/25 08:50:31;;;;;;;;;;;;;;;6.66;61.91;101376.45;1884894;76;20117;-60
2022/03/25 08:53:01;;;;;;;;;;;;;;;6.62;62.04;101377.38;1884614;75;20141;-65
2022/03/25 08:55:29;;;;;;;;;;;;;;;6.59;62.08;101374.37;1884774;76;20108;-65
2022/03/25 08:57:57;;;;;;;;;;;;;;;6.54;62.11;101383.56;1884856;76;20128;-62
2022/03/25 09:00:25;;;;;;;;;;;;;;;6.51;62.02;101382.31;1884835;76;20147;-61
2022/03/25 09:02:52;;;;;;;;;;;;;;;6.50;62.31;101379.27;1884808;75;20121;-61
2022/03/25 09:05:20;;;;;;;;;;;;;;;6.51;62.07;101381.01;1884794;75;20104;-64
2022/03/25 09:07:48;;;;;;;;;;;;;;;6.53;62.02;101381.85;1884751;76;20160;-68
2022/03/25 09:10:16;;;;;;;;;;;;;;;6.55;61.85;101380.08;1884807;76;20121;-62
2022/03/25 09:12:45;;;;;;;;;;;;;;;6.59;61.80;101385.28;1884837;76;20117;-62
2022/03/25 09:15:13;;;;;;;;;;;;;;;6.61;61.85;101382.20;1884801;76;20116;-61
2022/03/25 09:17:49;;;;;;;;;;;;;;;6.61;61.83;101387.44;1884823;75;20149;-62
2022/03/25 09:20:14;;;;;;;;;;;;;;;6.62;61.93;101390.05;1884201;76;20147;-62
2022/03/25 09:22:43;;;;;;;;;;;;;;;6.64;61.88;101390.00;1884746;76;20113;-60
2022/03/25 09:25:12;;;;;;;;;;;;;;;6.63;61.78;101394.83;1884881;75;20144;-63
2022/03/25 09:27:41;;;;;;;;;;;;;;;6.65;61.75;101391.29;1884874;76;20117;-62
2022/03/25 09:30:10;;;;;;;;;;;;;;;6.64;61.90;101386.95;1884874;76;20121;-66
2022/03/25 09:32:38;;;;;;;;;;;;;;;6.81;61.91;101384.12;1884873;76;20413;-67
2022/03/25 09:35:09;;;;;;;;;;;;;;;7.12;61.73;101381.95;1877398;74;20121;-66
2022/03/25 09:37:38;;;;;;;;;;;;;;;7.46;61.52;101383.19;1867935;76;20140;-63
2022/03/25 09:40:08;;;;;;;;;;;;;;;7.87;61.20;101384.25;1870521;77;20145;-64
2022/03/25 09:42:37;;;;;;;;;;;;;;;8.18;60.85;101376.69;1870463;75;20418;-62
2022/03/25 09:45:06;;;;;;;;;;;;;;;8.41;60.49;101380.62;1870549;75;20429;-62
2022/03/25 09:47:34;;;;;;;;;;;;;;;8.56;60.33;101378.16;1870454;75;20422;-62
2022/03/25 09:50:02;;;;;;;;;;;;;;;8.64;60.17;101377.58;1870478;77;20186;-62
2022/03/25 09:52:31;;;;;;;;;;;;;;;8.58;60.04;101383.81;1870652;75;20183;-62
2022/03/25 09:54:59;;;;;;;;;;;;;;;8.57;60.11;101382.53;1870647;77;20378;-61
2022/03/25 09:57:27;;;;;;;;;;;;;;;8.61;60.31;101383.77;1870548;77;20140;-63
2022/03/25 09:59:55;;;;;;;;;;;;;;;8.62;60.18;101384.62;1870505;77;20175;-64
2022/03/25 10:02:24;;;;;;;;;;;;;;;8.51;60.08;101384.84;1899490;75;20144;-65
2022/03/25 10:04:53;;;;;;;;;;;;;;;8.45;60.17;101392.84;1870638;75;20140;-66
2022/03/25 10:07:42;;;;;;;;;;;;;;;8.25;60.38;101390.56;1895137;74;20429;-68
2022/03/25 10:10:11;;;;;;;;;;;;;;;7.99;60.51;101394.98;1940841;74;20112;-63
2022/03/25 10:12:40;;;;;;;;;;;;;;;7.85;60.62;101396.52;1940169;74;20117;-64
2022/03/25 10:15:22;;;;;;;;;;;;;;;7.67;60.85;101398.58;1940736;74;20175;-61
2022/03/25 10:18:04;;;;;;;;;;;;;;;7.50;61.10;101403.20;1940793;74;20147;-62
2022/03/25 10:20:42;;;;;;;;;;;;;;;7.29;61.40;101397.86;1940722;74;20405;-61
2022/03/25 10:23:17;;;;;;;;;;;;;;;7.19;61.57;101400.19;1913950;74;20397;-63
2022/03/25 10:28:37;;;;;;;;;;;;;;;7.04;61.73;101401.27;1915196;74;20539;-62
2022/03/25 10:31:08;;;;;;;;;;;;;;;7.02;61.66;101403.05;1912989;74;20146;-68
2022/03/25 10:33:37;;;;;;;;;;;;;;;6.95;61.69;101410.10;1921056;74;20116;-62
2022/03/25 10:36:09;;;;;;;;;;;;;;;6.85;61.97;101411.12;1893417;74;20112;-63
2022/03/25 10:38:46;;;;;;;;;;;;;;;6.78;61.87;101406.40;1916154;73;20162;-64
2022/03/25 10:41:11;;;;;;;;;;;;;;;6.73;62.05;101405.59;1910568;74;20188;-64
2022/03/25 10:43:53;;;;;;;;;;;;;;;6.68;62.12;101403.49;1917397;74;20117;-66
2022/03/25 10:46:27;;;;;;;;;;;;;;;6.64;62.23;101400.47;1917365;74;20212;-67
2022/03/25 10:48:55;;;;;;;;;;;;;;;6.61;62.27;101399.22;1921909;74;20116;-60
2022/03/25 10:51:24;;;;;;;;;;;;;;;6.60;62.32;101398.77;1917337;74;20112;-62
2022/03/25 10:53:56;;;;;;;;;;;;;;;6.62;62.37;101394.38;1920731;74;20107;-66
2022/03/25 10:56:26;;;;;;;;;;;;;;;6.66;62.53;101392.15;1876881;76;20106;-65
2022/03/25 10:58:59;;;;;;;;;;;;;;;6.69;62.40;101392.12;1877579;75;20184;-67
2022/03/25 11:01:24;;;;;;;;;;;;;;;6.75;62.19;101395.95;1876763;75;20101;-68
2022/03/25 11:03:52;;;;;;;;;;;;;;;6.79;62.10;101396.79;1877539;76;20117;-65
2022/03/25 11:06:20;;;;;;;;;;;;;;;6.79;62.10;101393.75;1877509;75;20113;-73
2022/03/25 11:08:48;;;;;;;;;;;;;;;6.80;62.01;101395.47;1877858;76;20109;-71
2022/03/25 11:11:17;;;;;;;;;;;;;;;6.80;62.12;101402.46;1877484;76;20109;-69
2022/03/25 11:13:45;;;;;;;;;;;;;;;6.77;62.27;101403.37;1877576;76;20396;-65
2022/03/25 11:16:16;;;;;;;;;;;;;;;6.71;62.51;101408.66;1877569;75;20113;-70
2022/03/25 11:18:44;;;;;;;;;;;;;;;6.66;62.83;101406.54;1927283;74;20105;-67
2022/03/25 11:21:13;;;;;;;;;;;;;;;6.64;62.89;101406.59;1916878;74;20141;-66
2022/03/25 11:23:45;;;;;;;;;;;;;;;6.67;63.11;101416.14;1910106;75;20103;-69
2022/03/25 11:26:20;;;;;;;;;;;;;;;6.75;63.24;101403.81;1910535;74;20142;-66
2022/03/25 11:28:45;;;;;;;;;;;;;;;6.81;64.41;101410.30;1940104;73;20128;-71
2022/03/25 11:31:14;;;;;;;;;;;;;;;6.88;63.89;101409.34;1977560;72;20117;-72
2022/03/25 11:34:00;;;;;;;;;;;;;;;6.95;63.81;101405.75;1944184;73;20143;-69
2022/03/25 11:36:28;;;;;;;;;;;;;;;6.99;64.70;101416.17;1943697;73;20147;-68
2022/03/25 11:39:01;;;;;;;;;;;;;;;7.02;63.93;101408.28;1912197;74;20149;-72
2022/03/25 11:41:28;;;;;;;;;;;;;;;7.18;63.84;101408.95;1900425;75;20192;-65
2022/03/25 11:44:20;;;;;;;;;;;;;;;7.38;63.53;101406.89;1908193;75;20142;-68
2022/03/25 11:47:03;;;;;;;;;;;;;;;7.60;63.22;101403.92;1907949;75;20263;-67
2022/03/25 11:49:32;;;;;;;;;;;;;;;7.83;62.93;101400.48;1908320;75;20111;-66
2022/03/25 11:52:19;;;;;;;;;;;;;;;8.03;62.68;101398.83;1917716;74;20374;-60
2022/03/25 11:54:49;;;;;;;;;;;;;;;8.11;62.69;101407.44;1943458;73;20149;-58
2022/03/25 11:57:23;;;;;;;;;;;;;;;8.21;62.48;101408.58;1943503;73;20148;-58
2022/03/25 11:59:52;;;;;;;;;;;;;;;8.26;62.38;101398.41;1943519;74;20114;-59
2022/03/25 12:02:24;;;;;;;;;;;;;;;8.30;62.49;101397.91;1943888;74;20155;-58
2022/03/25 12:04:52;;;;;;;;;;;;;;;8.29;62.20;101395.71;1943449;74;20192;-58
2022/03/25 12:07:19;;;;;;;;;;;;;;;8.24;62.22;101398.00;1943402;72;20116;-59
2022/03/25 12:09:47;;;;;;;;;;;;;;;8.25;62.13;101396.67;1948724;74;20103;-58
2022/03/25 12:12:15;;;;;;;;;;;;;;;8.25;62.20;101402.38;1949733;74;20114;-57
2022/03/25 12:15:01;;;;;;;;;;;;;;;8.22;62.19;101402.42;1949721;74;20136;-58
2022/03/25 12:17:29;;;;;;;;;;;;;;;8.24;62.13;101404.56;1949719;74;20115;-58
2022/03/25 12:19:57;;;;;;;;;;;;;;;8.27;62.13;101401.44;1949023;74;20133;-57
2022/03/25 12:22:27;;;;;;;;;;;;;;;8.29;62.00;101402.27;1949652;74;20130;-57
2022/03/25 12:24:56;;;;;;;;;;;;;;;8.29;62.04;101402.73;1949149;74;20157;-60
2022/03/25 12:27:25;;;;;;;;;;;;;;;8.25;62.01;101407.16;1945122;73;20400;-60
2022/03/25 12:29:58;;;;;;;;;;;;;;;8.22;61.96;101407.67;1949608;74;20142;-61
2022/03/25 12:32:26;;;;;;;;;;;;;;;8.18;62.05;101412.56;1925995;73;20129;-61
2022/03/25 12:35:05;;;;;;;;;;;;;;;8.16;62.08;101411.72;1914288;74;20112;-63
2022/03/25 12:37:38;;;;;;;;;;;;;;;8.12;62.03;101414.84;1915953;75;20173;-61
2022/03/25 12:40:10;;;;;;;;;;;;;;;8.18;61.97;101416.04;1915862;75;20112;-61
2022/03/25 12:42:38;;;;;;;;;;;;;;;8.22;61.98;101422.09;1883221;76;20195;-62
2022/03/25 12:45:06;;;;;;;;;;;;;;;8.27;61.95;101417.63;1883193;75;20241;-61
2022/03/25 12:47:35;;;;;;;;;;;;;;;8.24;61.88;101418.99;1907507;75;20141;-62
2022/03/25 12:50:04;;;;;;;;;;;;;;;8.22;61.84;101415.54;1915627;75;20386;-61
2022/03/25 12:52:32;;;;;;;;;;;;;;;8.18;61.88;101424.36;1915531;75;20139;-62
2022/03/25 12:55:08;;;;;;;;;;;;;;;8.14;61.85;101420.93;1916088;75;20108;-61
2022/03/25 12:57:37;;;;;;;;;;;;;;;8.11;61.82;101423.59;1915947;75;20406;-61
2022/03/25 13:00:06;;;;;;;;;;;;;;;8.03;61.82;101419.80;1916087;75;20224;-61
2022/03/25 13:02:36;;;;;;;;;;;;;;;7.98;61.87;101426.87;1916020;75;20424;-61
2022/03/25 13:05:07;;;;;;;;;;;;;;;7.92;62.04;101427.00;1916158;75;20112;-61